Soaring Guidance
Issued by NWS Reno, NV

Home | Current Version | Previous Version | Text Only | Print | Product List | Glossary On
Versions: 1 2 3 4 5 6 7 8 9 10 11 12 13 14
000
UXUS97 KREV 251358
SRGREV

SOARING FORECAST
NATIONAL WEATHER SERVICE - RENO NV
700 AM PDT SUN SEP 25 2016

THIS SOARING FORECAST IS FOR THE EASTERN SIERRA AND WESTERN NEVADA
WITH SPECIFIC INDICES FOR THE GREATER RENO AREA.

THIS FORECAST IS PREPARED DAILY BY 700 AM AND IS NOT UPDATED.

FOR CURRENT FLIGHT CONDITIONS...FORECASTS...AND ADVISORIES...ACCESS
YOUR LOCAL BRIEFING OUTLET OR FLIGHT SERVICE STATION.

*******************************************************************
FORECASTED LOCAL INDICES FOR RENO:        TODAY     YESTERDAY
FORECASTED MAX TEMP AT RENO (DEG F).....     80          78
FORECASTED TRIGGER TEMPERATURE (DEG F)..     70          60
   EXCEEDED YESTERDAY BY 1055 AM PDT
FORECASTED MAXIMUM ALTITUDE (FT MSL)....  10800       10000
FORECASTED SOARING INDEX (FPM)..........    414         210
FORECASTED K-INDEX.........VALID 18Z....      3         -11
FORECASTED K-INDEX.........VALID 00Z....      4         -14
FORECASTED LIFTED INDEX....VALID 18Z....     15          12
FORECASTED LIFTED INDEX....VALID 00Z....     13          11

AFTERNOON WINDS ALOFT FORECAST
MSL (FT) WIND/TEMP
9000  0818/+12
10000 0717/+10
12000 0715/+08
14000 0515/+03
16000 0415/-01
18000 0413/-06
24000 3613/-18
30000 3615/-35
34000 0323/-45
39000 0124/-57

SLIDE MOUNTAIN DATA:
     DATE       TIME     TEMP  DEWPT   RH         WIND (MPH)
                        (F)   (F)           | DIR  SPEED GUST
2016-09-25    03:50      44    21     28    | 068   18   28
2016-09-25    03:30      44    23     30    | 067   19   25
2016-09-25    03:20      44    22     28    | 070   19   26
2016-09-25    03:00      44    22     29    | 067   21   31

RENO TAF FORECAST:
KRNO 251120Z 2512/2612 VRB03KT P6SM SKC
     FM252100 08008KT P6SM SKC
     FM260200 VRB04KT P6SM SKC

CARSON CITY TAF FORECAST:
KCXP 251120Z 2512/2612 VRB04KT P6SM SKC
     FM252000 08010G16KT P6SM SKC
     FM260100 VRB04KT P6SM SKC

OUTLOOK FOR THE RENO-CARSON CITY-MINDEN AREA:
.MONDAY...SUNNY. HIGHS 83 TO 88. LIGHT WINDS.

SUNRISE AND SUNSET
SEPTEMBER 25 2016.....SUNRISE   650 AM PDT   SUNSET   650 PM PDT
SEPTEMBER 26 2016.....SUNRISE   651 AM PDT   SUNSET   649 PM PDT


USA.gov is the U.S. government's official web portal to all federal, state and local government web resources and services.